Atmospheric History
12/10/2018 06:47  to  12/11/2018 06:47
Change End Date:
To complete the export process:
1) Select all of the data below
2) Copy the data to the clipboard
3) Open a word processor such as Notepad
4) Paste the data into the word processor
5) Save the file

Date/Time (MST), AirTemp, RH, Dewpoint ,AvgWindSpeed, GustWindSpeed, WindDirection, PrecipType, PrecipIntensity, PrecipAccumulation, PrecipRate
12/11/2018 06:41, 29, ,   ,19, 23, NW, None, None, ,  
12/11/2018 06:34, 29, ,   ,20, 24, NW, Yes, , ,  
12/11/2018 06:30, 29, ,   ,19, 24, NW, None, None, ,  
12/11/2018 06:20, 29, ,   ,21, 25, NW, None, None, ,  
12/11/2018 06:19, 29, ,   ,22, 25, NW, None, None, ,  
12/11/2018 06:10, 29, ,   ,21, 24, NW, None, None, ,  
12/11/2018 06:04, 29, ,   ,21, 24, NW, None, None, ,  
12/11/2018 06:00, 29, ,   ,21, 27, NW, None, None, ,  
12/11/2018 05:50, 30, ,   ,21, 27, NW, None, None, ,  
12/11/2018 05:49, 30, ,   ,22, 27, NW, None, None, ,  
12/11/2018 05:40, 30, 99, 30 ,23, 26, NW, None, None, ,  
12/11/2018 05:34, 30, 98, 29 ,21, 25, NW, None, None, ,  
12/11/2018 05:30, 30, 97, 29 ,21, 24, NW, None, None, ,  
12/11/2018 05:20, 29, 91, 27 ,20, 26, NW, None, None, ,  
12/11/2018 05:19, 29, 90, 27 ,21, 26, NW, None, None, ,  
12/11/2018 05:10, 29, 81, 24 ,21, 24, NW, None, None, ,  
12/11/2018 05:04, 29, 75, 22 ,19, 21, NW, None, None, ,  
12/11/2018 05:00, 29, 74, 22 ,16, 19, NW, None, None, ,  
12/11/2018 04:50, 29, 73, 21 ,15, 21, NW, None, None, ,  
12/11/2018 04:49, 29, 72, 21 ,16, 21, NW, None, None, ,  
12/11/2018 04:40, 29, 69, 21 ,19, 22, NW, None, None, ,  
12/11/2018 04:34, 29, 70, 21 ,20, 22, NW, None, None, ,  
12/11/2018 04:30, 30, 69, 21 ,19, 22, NW, None, None, ,  
12/11/2018 04:20, 29, 73, 21 ,19, 21, NW, None, None, ,  
12/11/2018 04:19, 29, 73, 22 ,18, 21, NW, None, None, ,  
12/11/2018 04:10, 28, 74, 22 ,16, 20, NW, None, None, ,  
12/11/2018 04:04, 29, 72, 21 ,18, 21, NW, None, None, ,  
12/11/2018 04:00, 29, 72, 21 ,18, 21, NW, None, None, ,  
12/11/2018 03:50, 29, 73, 21 ,17, 19, NW, None, None, ,  
12/11/2018 03:49, 29, 73, 21 ,17, 19, NW, None, None, ,  
12/11/2018 03:40, 28, 76, 22 ,12, 17, NW, None, None, ,  
12/11/2018 03:34, 28, 74, 21 ,15, 17, NW, None, None, ,  
12/11/2018 03:30, 28, 75, 21 ,15, 17, NW, None, None, ,  
12/11/2018 03:20, 28, 76, 22 ,16, 19, NW, None, None, ,  
12/11/2018 03:19, 28, 76, 22 ,16, 19, NW, None, None, ,  
12/11/2018 03:10, 28, 75, 21 ,16, 19, NW, None, None, ,  
12/11/2018 03:04, 28, 77, 22 ,17, 19, NW, None, None, ,  
12/11/2018 03:00, 28, 76, 21 ,17, 19, NW, None, None, ,  
12/11/2018 02:50, 28, 76, 21 ,17, 19, NW, None, None, ,  
12/11/2018 02:49, 28, 76, 21 ,17, 19, NW, None, None, ,  
12/11/2018 02:40, 27, 78, 21 ,17, 18, NW, None, None, ,  
12/11/2018 02:35, 27, 78, 21 ,17, 18, NW, None, None, ,  
12/11/2018 02:30, 27, 78, 21 ,17, 18, NW, None, None, ,  
12/11/2018 02:20, 28, 76, 21 ,14, 17, NW, None, None, ,  
12/11/2018 02:19, 28, 75, 21 ,14, 17, NW, None, None, ,  
12/11/2018 02:10, 28, 75, 21 ,16, 18, NW, None, None, ,  
12/11/2018 02:04, 29, 73, 21 ,17, 19, NW, None, None, ,  
12/11/2018 02:00, 29, 73, 22 ,16, 19, NW, None, None, ,  
12/11/2018 01:50, 29, 72, 22 ,17, 19, NW, None, None, ,  
12/11/2018 01:49, 29, 73, 22 ,17, 19, NW, None, None, ,  
12/11/2018 01:39, 29, 73, 22 ,17, 19, NW, None, None, ,  
12/11/2018 01:34, 30, 71, 22 ,17, 20, NW, None, None, ,  
12/11/2018 01:29, 30, 71, 22 ,17, 20, NW, None, None, ,  
12/11/2018 01:19, 30, 70, 22 ,19, 21, NW, None, None, ,  
12/11/2018 01:19, 30, 70, 22 ,19, 21, NW, None, None, ,  
12/11/2018 01:09, 30, 69, 22 ,19, 21, NW, None, None, ,  
12/11/2018 01:04, 30, 68, 21 ,20, 21, NW, None, None, ,  
12/11/2018 00:59, 31, 68, 22 ,19, 21, NW, None, None, ,  
12/11/2018 00:49, 31, 65, 21 ,19, 21, NW, None, None, ,  
12/11/2018 00:49, 31, 66, 21 ,19, 21, NW, None, None, ,  
12/11/2018 00:39, 31, 66, 21 ,18, 20, NW, None, None, ,  
12/11/2018 00:34, 31, 66, 21 ,17, 18, NW, None, None, ,  
12/11/2018 00:29, 31, 66, 21 ,17, 19, NW, None, None, ,  
12/11/2018 00:19, 31, 66, 21 ,17, 19, NW, None, None, ,  
12/11/2018 00:19, 31, 66, 21 ,17, 19, NW, None, None, ,  
12/11/2018 00:09, 30, 68, 21 ,17, 19, NW, None, None, ,  
12/11/2018 00:04, 30, 67, 21 ,17, 19, NW, None, None, ,  
12/10/2018 23:59, 30, 67, 21 ,17, 20, NW, None, None, ,  
12/10/2018 23:49, 30, 66, 20 ,17, 19, NW, None, None, ,  
12/10/2018 23:49, 30, 66, 20 ,17, 19, NW, None, None, ,  
12/10/2018 23:39, 30, 66, 20 ,16, 17, NW, None, None, ,  
12/10/2018 23:34, 30, 66, 20 ,15, 16, NW, None, None, ,  
12/10/2018 23:29, 31, 63, 20 ,14, 15, NW, None, None, ,  
12/10/2018 23:19, 30, 63, 19 ,12, 13, NW, None, None, ,  
12/10/2018 23:19, 30, 63, 19 ,12, 13, NW, None, None, ,  
12/10/2018 23:09, 30, 63, 19 ,13, 14, NW, None, None, ,  
12/10/2018 23:04, 30, 64, 20 ,12, 14, NW, None, None, ,  
12/10/2018 22:59, 30, 63, 19 ,13, 14, NW, None, None, ,  
12/10/2018 22:49, 30, 63, 19 ,12, 14, NW, None, None, ,  
12/10/2018 22:49, 30, 63, 19 ,12, 14, NW, None, None, ,  
12/10/2018 22:39, 30, 62, 19 ,13, 14, NW, None, None, ,  
12/10/2018 22:34, 30, 61, 19 ,12, 13, NW, None, None, ,  
12/10/2018 22:29, 30, 63, 19 ,12, 14, NW, None, None, ,  
12/10/2018 22:19, 31, 61, 19 ,13, 13, NW, None, None, ,  
12/10/2018 22:19, 31, 61, 19 ,13, 13, NW, None, None, ,  
12/10/2018 22:09, 31, 60, 19 ,13, 14, NW, None, None, ,  
12/10/2018 22:04, 32, 58, 19 ,13, 14, NW, None, None, ,  
12/10/2018 21:59, 32, 59, 20 ,12, 12, NW, None, None, ,  
12/10/2018 21:49, 33, 57, 20 ,11, 11, NW, None, None, ,  
12/10/2018 21:49, 33, 57, 20 ,11, 11, NW, None, None, ,  
12/10/2018 21:39, 34, 52, 18 ,11, 12, NW, None, None, ,  
12/10/2018 21:34, 33, 54, 18 ,12, 13, W, None, None, ,  
12/10/2018 21:29, 33, 53, 18 ,12, 13, W, None, None, ,  
12/10/2018 21:19, 33, 53, 18 ,11, 12, NW, None, None, ,  
12/10/2018 21:19, 33, 53, 18 ,11, 12, NW, None, None, ,  
12/10/2018 21:09, 34, 49, 17 ,11, 11, NW, None, None, ,  
12/10/2018 21:04, 33, 49, 16 ,11, 12, W, None, None, ,  
12/10/2018 20:59, 33, 47, 15 ,11, 12, W, None, None, ,  
12/10/2018 20:49, 32, 47, 14 ,11, 12, W, None, None, ,  
12/10/2018 20:49, 32, 47, 14 ,11, 12, W, None, None, ,  
12/10/2018 20:39, 33, 45, 14 ,10, 12, W, None, None, ,  
12/10/2018 20:34, 33, 46, 14 ,11, 12, W, None, None, ,  
12/10/2018 20:29, 32, 46, 14 ,11, 11, W, None, None, ,  
12/10/2018 20:19, 33, 48, 15 ,5, 7, NW, None, None, ,  
12/10/2018 20:19, 32, 48, 15 ,5, 7, NW, None, None, ,  
12/10/2018 20:09, 33, 50, 16 ,5, 6, W, None, None, ,  
12/10/2018 20:04, 33, 49, 16 ,4, 6, W, None, None, ,  
12/10/2018 19:59, 34, 49, 17 ,4, 6, SW, None, None, ,  
12/10/2018 19:49, 34, 49, 17 ,4, 6, SW, None, None, ,  
12/10/2018 19:49, 34, 49, 17 ,5, 6, SW, None, None, ,  
12/10/2018 19:39, 34, 50, 17 ,4, 6, W, None, None, ,  
12/10/2018 19:34, 34, 49, 17 ,5, 6, W, None, None, ,  
12/10/2018 19:28, 34, 51, 17 ,4, 6, SW, None, None, ,  
12/10/2018 19:19, 33, 53, 18 ,2, 6, SW, None, None, ,  
12/10/2018 19:18, 33, 53, 18 ,2, 6, SW, None, None, ,  
12/10/2018 19:08, 33, 53, 18 ,6, 9, SW, None, None, ,  
12/10/2018 19:04, 33, 51, 17 ,6, 7, SW, None, None, ,  
12/10/2018 18:58, 33, 52, 17 ,6, 7, SW, None, None, ,  
12/10/2018 18:49, 32, 54, 17 ,4, 6, SW, None, None, ,  
12/10/2018 18:48, 32, 54, 18 ,4, 6, SW, None, None, ,  
12/10/2018 18:38, 33, 53, 18 ,6, 8, SW, None, None, ,  
12/10/2018 18:34, 32, 54, 18 ,6, 8, SW, None, None, ,  
12/10/2018 18:28, 32, 55, 18 ,6, 9, SW, None, None, ,  
12/10/2018 18:19, 31, 55, 17 ,7, 11, SW, None, None, ,  
12/10/2018 18:18, 31, 55, 17 ,6, 11, SW, None, None, ,  
12/10/2018 18:08, 30, 55, 17 ,6, 11, SW, None, None, ,  
12/10/2018 18:04, 31, 53, 16 ,7, 11, SW, None, None, ,  
12/10/2018 17:58, 32, 50, 16 ,8, 10, W, None, None, ,  
12/10/2018 17:49, 33, 49, 16 ,6, 7, W, None, None, ,  
12/10/2018 17:48, 33, 49, 16 ,6, 7, W, None, None, ,  
12/10/2018 17:38, 32, 53, 17 ,6, 6, SW, None, None, ,  
12/10/2018 17:34, 31, 56, 17 ,6, 6, SW, None, None, ,  
12/10/2018 17:28, 32, 56, 18 ,4, 6, SW, None, None, ,  
12/10/2018 17:19, 32, 57, 19 ,2, 3, SW, None, None, ,  
12/10/2018 17:18, 32, 56, 18 ,2, 3, SW, None, None, ,  
12/10/2018 17:08, 31, 56, 18 ,1, 2, S, None, None, ,  
12/10/2018 17:04, 31, 59, 18 ,2, 3, SW, None, None, ,  
12/10/2018 16:58, 31, 57, 18 ,2, 7, SW, None, None, ,  
12/10/2018 16:49, 32, 56, 18 ,6, 7, SW, None, None, ,  
12/10/2018 16:48, 32, 56, 18 ,6, 6, SW, None, None, ,  
12/10/2018 16:38, 31, 58, 19 ,2, 5, SW, None, None, ,  
12/10/2018 16:34, 31, 59, 19 ,4, 5, W, None, None, ,  
12/10/2018 16:28, 31, 59, 19 ,4, 4, SW, None, None, ,  
12/10/2018 16:19, 31, 57, 18 ,2, 4, SW, None, None, ,  
12/10/2018 16:18, 32, 57, 18 ,2, 4, SW, None, None, ,  
12/10/2018 16:08, 33, 52, 17 ,4, 7, SW, None, None, ,  
12/10/2018 16:04, 32, 56, 18 ,4, 7, W, None, None, ,  
12/10/2018 15:58, 32, 56, 19 ,6, 7, W, None, None, ,  
12/10/2018 15:49, 32, 61, 20 ,4, 6, W, None, None, ,  
12/10/2018 15:48, 32, 61, 20 ,6, 6, W, None, None, ,  
12/10/2018 15:38, 32, 62, 21 ,4, 6, SW, None, None, ,  
12/10/2018 15:34, 32, 62, 21 ,3, 7, SW, None, None, ,  
12/10/2018 15:28, 32, 62, 21 ,6, 8, SW, None, None, ,  
12/10/2018 15:19, 33, 59, 20 ,4, 5, SW, None, None, ,  
12/10/2018 15:18, 33, 59, 20 ,4, 5, S, None, None, ,  
12/10/2018 15:08, 33, 57, 20 ,1, 2, S, None, None, ,  
12/10/2018 15:04, 33, 58, 20 ,0, 3, SE, None, None, ,  
12/10/2018 14:58, 32, 61, 20 ,1, 3, N, None, None, ,  
12/10/2018 14:49, 31, 64, 21 ,2, 10, N, None, None, ,  
12/10/2018 14:48, 31, 64, 21 ,3, 11, SW, None, None, ,  
12/10/2018 14:38, 32, 59, 20 ,7, 9, SW, None, None, ,  
12/10/2018 14:34, 33, 59, 20 ,7, 7, SW, None, None, ,  
12/10/2018 14:28, 33, 57, 20 ,4, 6, SW, None, None, ,  
12/10/2018 14:19, 34, 53, 19 ,5, 7, SW, None, None, ,  
12/10/2018 14:18, 34, 54, 19 ,6, 7, W, None, None, ,  
12/10/2018 14:08, 36, 51, 20 ,4, 7, W, None, None, ,  
12/10/2018 14:04, 35, 52, 20 ,6, 9, W, None, None, ,  
12/10/2018 13:58, 36, 56, 22 ,7, 11, W, None, None, ,  
12/10/2018 13:49, 36, 51, 20 ,9, 14, W, None, None, ,  
12/10/2018 13:47, 36, 54, 21 ,7, 14, W, None, None, ,  
12/10/2018 13:37, 33, 57, 19 ,13, 17, W, None, None, ,  
12/10/2018 13:34, 33, 56, 19 ,13, 18, W, None, None, ,  
12/10/2018 13:27, 34, 53, 19 ,15, 18, SW, None, None, ,  
12/10/2018 13:19, 33, 56, 19 ,13, 16, SW, None, None, ,  
12/10/2018 13:17, 33, 55, 19 ,13, 16, SW, None, None, ,  
12/10/2018 13:07, 33, 54, 19 ,15, 17, SW, None, None, ,  
12/10/2018 13:04, 33, 56, 19 ,14, 17, SW, None, None, ,  
12/10/2018 12:57, 33, 55, 19 ,13, 16, SW, None, None, ,  
12/10/2018 12:49, 34, 54, 19 ,13, 15, SW, None, None, ,  
12/10/2018 12:47, 33, 56, 20 ,12, 14, SW, None, None, ,  
12/10/2018 12:37, 33, 57, 20 ,12, 15, SW, None, None, ,  
12/10/2018 12:34, 33, 57, 20 ,12, 15, SW, None, None, ,  
12/10/2018 12:27, 33, 57, 20 ,12, 15, SW, None, None, ,  
12/10/2018 12:19, 33, 55, 19 ,12, 19, SW, None, None, ,  
12/10/2018 12:17, 33, 57, 20 ,14, 19, SW, None, None, ,  
12/10/2018 12:07, 33, 55, 19 ,16, 19, SW, None, None, ,  
12/10/2018 12:04, 33, 55, 19 ,14, 16, SW, None, None, ,  
12/10/2018 11:57, 32, 57, 19 ,12, 15, SW, None, None, ,  
12/10/2018 11:49, 31, 60, 19 ,12, 18, SW, None, None, ,  
12/10/2018 11:47, 31, 60, 19 ,13, 19, SW, None, None, ,  
12/10/2018 11:37, 32, 60, 19 ,15, 17, SW, None, None, ,  
12/10/2018 11:34, 31, 58, 19 ,15, 17, SW, None, None, ,  
12/10/2018 11:27, 31, 59, 18 ,13, 15, SW, None, None, ,  
12/10/2018 11:19, 30, 60, 19 ,12, 17, SW, None, None, ,  
12/10/2018 11:17, 31, 61, 19 ,13, 17, SW, None, None, ,  
12/10/2018 11:07, 30, 61, 19 ,12, 15, SW, None, None, ,  
12/10/2018 11:04, 30, 61, 19 ,12, 16, SW, None, None, ,  
12/10/2018 10:57, 30, 58, 18 ,12, 17, SW, None, None, ,  
12/10/2018 10:49, 30, 58, 18 ,14, 16, SW, None, None, ,  
12/10/2018 10:47, 30, 58, 17 ,13, 17, SW, None, None, ,  
12/10/2018 10:37, 29, 59, 17 ,15, 18, SW, None, None, ,  
12/10/2018 10:34, 29, 59, 17 ,15, 18, SW, None, None, ,  
12/10/2018 10:27, 29, 58, 16 ,13, 16, SW, None, None, ,  
12/10/2018 10:19, 28, 60, 16 ,12, 14, SW, None, None, ,  
12/10/2018 10:17, 28, 61, 16 ,9, 12, SW, None, None, ,  
12/10/2018 10:07, 27, 62, 16 ,9, 13, SW, None, None, ,  
12/10/2018 10:04, 27, 62, 16 ,9, 13, SW, None, None, ,  
12/10/2018 09:57, 27, 62, 16 ,11, 14, SW, None, None, ,  
12/10/2018 09:48, 27, 63, 17 ,12, 17, SW, None, None, ,  
12/10/2018 09:47, 27, 63, 16 ,11, 17, SW, None, None, ,  
12/10/2018 09:37, 28, 62, 16 ,13, 17, SW, None, None, ,  
12/10/2018 09:34, 28, 62, 16 ,14, 17, SW, None, None, ,  
12/10/2018 09:27, 28, 62, 16 ,14, 17, SW, None, None, ,  
12/10/2018 09:19, 27, 62, 16 ,12, 15, SW, None, None, ,  
12/10/2018 09:17, 28, 61, 16 ,12, 15, SW, None, None, ,  
12/10/2018 09:07, 28, 60, 16 ,13, 16, SW, None, None, ,  
12/10/2018 09:04, 28, 59, 16 ,12, 14, SW, None, None, ,  
12/10/2018 08:57, 28, 59, 16 ,11, 17, SW, None, None, ,  
12/10/2018 08:49, 28, 59, 15 ,14, 20, SW, None, None, ,  
12/10/2018 08:47, 28, 59, 15 ,15, 20, SW, None, None, ,  
12/10/2018 08:36, 27, 60, 15 ,16, 19, SW, None, None, ,  
12/10/2018 08:34, 27, 60, 15 ,16, 19, SW, None, None, ,  
12/10/2018 08:26, 26, 59, 14 ,16, 21, SW, None, None, ,  
12/10/2018 08:19, 26, 60, 14 ,17, 21, SW, None, None, ,  
12/10/2018 08:16, 26, 60, 14 ,17, 21, SW, None, None, ,  
12/10/2018 08:06, 26, 59, 14 ,17, 22, SW, None, None, ,  
12/10/2018 08:04, 26, 60, 14 ,19, 22, SW, None, None, ,  
12/10/2018 07:56, 26, 59, 13 ,16, 19, SW, None, None, ,  
12/10/2018 07:49, 26, 59, 13 ,15, 20, SW, None, None, ,  
12/10/2018 07:46, 26, 59, 13 ,16, 20, SW, None, None, ,  
12/10/2018 07:36, 26, 59, 14 ,16, 22, SW, None, None, ,  
12/10/2018 07:34, 26, 58, 13 ,17, 22, SW, None, None, ,  
12/10/2018 07:26, 26, 57, 13 ,17, 22, SW, None, None, ,  
12/10/2018 07:19, 26, 57, 13 ,17, 20, SW, None, None, ,  
12/10/2018 07:16, 25, 58, 13 ,17, 20, SW, None, None, ,  
12/10/2018 07:06, 25, 57, 12 ,16, 19, SW, None, None, ,  
12/10/2018 07:04, 25, 58, 12 ,16, 19, SW, None, None, ,  
12/10/2018 06:56, 25, 58, 12 ,16, 22, SW, None, None, ,  
12/10/2018 06:49, 25, 58, 12 ,18, 22, SW, None, None, ,  
Change End Date:

Copyright © 1998-2015 Vaisala, Inc.
All Rights Reserved
Send comments about the data to:
SCAN Web ® is a registered trademark of Vaisala, Inc.
SCAN Web Version 6.0